sensor_id;sensor_type;location;lat;lon;timestamp;P1;durP1;ratioP1;P2;durP2;ratioP2
62102;SDS011;48077;48.104;11.702;2023-04-03T10:51:57;58.33;;;53.78;;
62102;SDS011;48077;48.104;11.702;2023-04-03T10:54:41;47.80;;;44.05;;
62102;SDS011;48077;48.104;11.702;2023-04-03T10:57:26;40.00;;;37.13;;
62102;SDS011;48077;48.104;11.702;2023-04-03T10:59:59;35.40;;;32.83;;
62102;SDS011;48077;48.104;11.702;2023-04-03T11:04:55;38.15;;;35.40;;
62102;SDS011;48077;48.104;11.702;2023-04-03T11:07:43;37.50;;;34.55;;
62102;SDS011;48077;48.104;11.702;2023-04-03T11:10:15;37.13;;;34.17;;
62102;SDS011;48077;48.104;11.702;2023-04-03T11:13:28;39.08;;;36.03;;
62102;SDS011;48077;48.104;11.702;2023-04-03T11:15:37;43.55;;;40.08;;
62102;SDS011;48077;48.104;11.702;2023-04-03T11:18:02;43.95;;;40.20;;
62102;SDS011;48077;48.104;11.702;2023-04-03T11:20:32;42.63;;;39.05;;
62102;SDS011;48077;48.104;11.702;2023-04-03T11:22:58;40.30;;;37.17;;
62102;SDS011;48077;48.104;11.702;2023-04-03T11:25:26;41.38;;;38.22;;
62102;SDS011;48077;48.104;11.702;2023-04-03T11:36:01;48.65;;;45.10;;
62102;SDS011;48077;48.104;11.702;2023-04-03T11:38:31;44.85;;;41.50;;
62102;SDS011;48077;48.104;11.702;2023-04-03T11:40:59;46.20;;;42.85;;
62102;SDS011;48077;48.104;11.702;2023-04-03T11:45:50;44.53;;;40.97;;
62102;SDS011;48077;48.104;11.702;2023-04-03T11:50:54;42.47;;;39.13;;
62102;SDS011;48077;48.104;11.702;2023-04-03T11:53:26;44.22;;;40.65;;
62102;SDS011;48077;48.104;11.702;2023-04-03T11:55:58;41.92;;;38.67;;
62102;SDS011;48077;48.104;11.702;2023-04-03T11:58:24;40.85;;;37.83;;
62102;SDS011;48077;48.104;11.702;2023-04-03T12:00:52;41.35;;;38.03;;
62102;SDS011;48077;48.104;11.702;2023-04-03T12:08:27;32.85;;;30.05;;
62102;SDS011;48077;48.104;11.702;2023-04-03T12:13:37;36.38;;;33.47;;
62102;SDS011;48077;48.104;11.702;2023-04-03T12:16:05;32.75;;;30.42;;
62102;SDS011;48077;48.104;11.702;2023-04-03T12:21:08;29.70;;;27.45;;
62102;SDS011;48077;48.104;11.702;2023-04-03T12:23:33;28.33;;;26.08;;
62102;SDS011;48077;48.104;11.702;2023-04-03T12:26:00;27.88;;;25.83;;
62102;SDS011;48077;48.104;11.702;2023-04-03T12:28:29;26.80;;;24.65;;
62102;SDS011;48077;48.104;11.702;2023-04-03T12:30:53;26.55;;;24.40;;
62102;SDS011;48077;48.104;11.702;2023-04-03T12:33:36;24.25;;;22.20;;
62102;SDS011;48077;48.104;11.702;2023-04-03T12:36:11;28.40;;;26.08;;
62102;SDS011;48077;48.104;11.702;2023-04-03T12:46:44;27.65;;;25.48;;
62102;SDS011;48077;48.104;11.702;2023-04-03T12:49:53;27.20;;;24.83;;
62102;SDS011;48077;48.104;11.702;2023-04-03T12:52:03;25.95;;;23.85;;
62102;SDS011;48077;48.104;11.702;2023-04-03T12:54:32;21.58;;;19.65;;
62102;SDS011;48077;48.104;11.702;2023-04-03T12:59:37;19.77;;;18.00;;
62102;SDS011;48077;48.104;11.702;2023-04-03T13:02:02;17.80;;;16.20;;
62102;SDS011;48077;48.104;11.702;2023-04-03T13:04:33;16.83;;;15.52;;
62102;SDS011;48077;48.104;11.702;2023-04-03T13:06:56;15.30;;;13.90;;
62102;SDS011;48077;48.104;11.702;2023-04-03T13:09:27;15.15;;;13.68;;
62102;SDS011;48077;48.104;11.702;2023-04-03T13:16:57;32.72;;;29.85;;
62102;SDS011;48077;48.104;11.702;2023-04-03T13:19:27;22.35;;;20.42;;
62102;SDS011;48077;48.104;11.702;2023-04-03T13:21:53;16.80;;;15.43;;
62102;SDS011;48077;48.104;11.702;2023-04-03T13:24:30;17.30;;;15.70;;
62102;SDS011;48077;48.104;11.702;2023-04-03T13:26:59;16.25;;;14.73;;
62102;SDS011;48077;48.104;11.702;2023-04-03T13:29:24;10.18;;;9.15;;
62102;SDS011;48077;48.104;11.702;2023-04-03T13:31:54;12.68;;;9.40;;
62102;SDS011;48077;48.104;11.702;2023-04-03T13:34:22;11.32;;;7.95;;
62102;SDS011;48077;48.104;11.702;2023-04-03T13:41:42;5.07;;;3.35;;
62102;SDS011;48077;48.104;11.702;2023-04-03T13:46:46;6.50;;;2.67;;
62102;SDS011;48077;48.104;11.702;2023-04-03T13:49:17;8.65;;;3.97;;
62102;SDS011;48077;48.104;11.702;2023-04-03T13:51:49;6.20;;;4.90;;
62102;SDS011;48077;48.104;11.702;2023-04-03T13:54:19;11.57;;;6.43;;
62102;SDS011;48077;48.104;11.702;2023-04-03T13:56:52;9.27;;;7.38;;
62102;SDS011;48077;48.104;11.702;2023-04-03T14:02:09;11.00;;;9.75;;
62102;SDS011;48077;48.104;11.702;2023-04-03T14:04:56;16.15;;;14.73;;
62102;SDS011;48077;48.104;11.702;2023-04-03T14:07:24;17.45;;;15.93;;
62102;SDS011;48077;48.104;11.702;2023-04-03T14:09:48;17.60;;;15.88;;
62102;SDS011;48077;48.104;11.702;2023-04-03T14:12:13;17.15;;;15.55;;
62102;SDS011;48077;48.104;11.702;2023-04-03T14:14:40;15.93;;;14.75;;
62102;SDS011;48077;48.104;11.702;2023-04-03T14:17:10;22.33;;;20.52;;
62102;SDS011;48077;48.104;11.702;2023-04-03T14:19:38;21.95;;;20.10;;
62102;SDS011;48077;48.104;11.702;2023-04-03T14:22:06;22.23;;;20.55;;
62102;SDS011;48077;48.104;11.702;2023-04-03T14:24:36;26.13;;;24.13;;
62102;SDS011;48077;48.104;11.702;2023-04-03T14:27:01;26.60;;;24.60;;
62102;SDS011;48077;48.104;11.702;2023-04-03T14:29:25;25.85;;;23.80;;
62102;SDS011;48077;48.104;11.702;2023-04-03T14:31:48;27.27;;;25.00;;
62102;SDS011;48077;48.104;11.702;2023-04-03T14:34:13;28.80;;;26.48;;
62102;SDS011;48077;48.104;11.702;2023-04-03T14:36:37;30.83;;;28.42;;
62102;SDS011;48077;48.104;11.702;2023-04-03T14:39:02;32.63;;;29.98;;
62102;SDS011;48077;48.104;11.702;2023-04-03T14:41:27;33.60;;;30.70;;
62102;SDS011;48077;48.104;11.702;2023-04-03T14:43:50;35.50;;;32.22;;
62102;SDS011;48077;48.104;11.702;2023-04-03T14:46:16;36.88;;;33.67;;
62102;SDS011;48077;48.104;11.702;2023-04-03T14:48:42;38.10;;;34.92;;
62102;SDS011;48077;48.104;11.702;2023-04-03T14:51:06;36.00;;;33.00;;
62102;SDS011;48077;48.104;11.702;2023-04-03T14:53:31;35.75;;;32.78;;
62102;SDS011;48077;48.104;11.702;2023-04-03T14:55:55;37.70;;;34.45;;
62102;SDS011;48077;48.104;11.702;2023-04-03T14:58:19;37.78;;;34.60;;
62102;SDS011;48077;48.104;11.702;2023-04-03T15:00:43;38.55;;;35.35;;
62102;SDS011;48077;48.104;11.702;2023-04-03T15:03:18;48.45;;;43.75;;
62102;SDS011;48077;48.104;11.702;2023-04-03T15:05:44;50.92;;;46.75;;
62102;SDS011;48077;48.104;11.702;2023-04-03T15:08:30;54.22;;;49.58;;
62102;SDS011;48077;48.104;11.702;2023-04-03T15:10:52;69.13;;;62.92;;
62102;SDS011;48077;48.104;11.702;2023-04-03T15:13:19;76.93;;;69.85;;
62102;SDS011;48077;48.104;11.702;2023-04-03T15:15:43;67.95;;;62.28;;
62102;SDS011;48077;48.104;11.702;2023-04-03T15:18:06;71.97;;;65.50;;
62102;SDS011;48077;48.104;11.702;2023-04-03T15:20:54;79.40;;;72.28;;
62102;SDS011;48077;48.104;11.702;2023-04-03T15:23:20;71.85;;;65.55;;
62102;SDS011;48077;48.104;11.702;2023-04-03T15:25:48;70.45;;;64.13;;
62102;SDS011;48077;48.104;11.702;2023-04-03T15:28:22;57.55;;;52.25;;
62102;SDS011;48077;48.104;11.702;2023-04-03T15:30:49;43.47;;;40.08;;
62102;SDS011;48077;48.104;11.702;2023-04-03T15:33:13;41.90;;;38.08;;
62102;SDS011;48077;48.104;11.702;2023-04-03T15:35:38;40.90;;;37.42;;
62102;SDS011;48077;48.104;11.702;2023-04-03T15:38:01;35.88;;;33.00;;
62102;SDS011;48077;48.104;11.702;2023-04-03T15:40:27;32.78;;;29.70;;
62102;SDS011;48077;48.104;11.702;2023-04-03T15:42:51;35.25;;;32.22;;
62102;SDS011;48077;48.104;11.702;2023-04-03T15:45:14;32.20;;;29.45;;
62102;SDS011;48077;48.104;11.702;2023-04-03T15:47:38;27.20;;;24.67;;
62102;SDS011;48077;48.104;11.702;2023-04-03T15:50:01;29.60;;;26.52;;
62102;SDS011;48077;48.104;11.702;2023-04-03T15:52:28;28.33;;;25.70;;
62102;SDS011;48077;48.104;11.702;2023-04-03T15:54:52;27.85;;;25.38;;
62102;SDS011;48077;48.104;11.702;2023-04-03T15:57:15;29.42;;;26.88;;
62102;SDS011;48077;48.104;11.702;2023-04-03T15:59:39;28.42;;;26.02;;
62102;SDS011;48077;48.104;11.702;2023-04-03T16:02:03;28.10;;;25.75;;
62102;SDS011;48077;48.104;11.702;2023-04-03T16:04:29;30.33;;;27.98;;
62102;SDS011;48077;48.104;11.702;2023-04-03T16:06:52;29.50;;;26.83;;
62102;SDS011;48077;48.104;11.702;2023-04-03T16:09:16;27.15;;;24.98;;
62102;SDS011;48077;48.104;11.702;2023-04-03T16:11:39;29.98;;;27.25;;
62102;SDS011;48077;48.104;11.702;2023-04-03T16:14:03;25.83;;;23.77;;
62102;SDS011;48077;48.104;11.702;2023-04-03T16:16:29;23.63;;;21.60;;
62102;SDS011;48077;48.104;11.702;2023-04-03T16:18:53;24.83;;;22.67;;
62102;SDS011;48077;48.104;11.702;2023-04-03T16:21:18;27.83;;;24.65;;
62102;SDS011;48077;48.104;11.702;2023-04-03T16:23:41;24.42;;;21.85;;
62102;SDS011;48077;48.104;11.702;2023-04-03T16:26:06;22.67;;;20.52;;
62102;SDS011;48077;48.104;11.702;2023-04-03T16:28:29;22.58;;;20.48;;
62102;SDS011;48077;48.104;11.702;2023-04-03T16:30:52;21.88;;;19.75;;
62102;SDS011;48077;48.104;11.702;2023-04-03T16:33:16;20.67;;;18.90;;
62102;SDS011;48077;48.104;11.702;2023-04-03T16:35:39;22.15;;;20.13;;
62102;SDS011;48077;48.104;11.702;2023-04-03T16:38:04;20.80;;;18.90;;
62102;SDS011;48077;48.104;11.702;2023-04-03T16:40:28;20.73;;;18.98;;
62102;SDS011;48077;48.104;11.702;2023-04-03T16:42:52;21.70;;;19.77;;
62102;SDS011;48077;48.104;11.702;2023-04-03T16:45:18;22.75;;;20.88;;
62102;SDS011;48077;48.104;11.702;2023-04-03T16:47:41;23.65;;;21.35;;
62102;SDS011;48077;48.104;11.702;2023-04-03T16:50:07;26.58;;;23.90;;
62102;SDS011;48077;48.104;11.702;2023-04-03T16:52:31;25.85;;;23.70;;
62102;SDS011;48077;48.104;11.702;2023-04-03T16:54:55;24.73;;;22.67;;
62102;SDS011;48077;48.104;11.702;2023-04-03T16:57:18;25.23;;;22.80;;
62102;SDS011;48077;48.104;11.702;2023-04-03T16:59:43;25.33;;;23.20;;
62102;SDS011;48077;48.104;11.702;2023-04-03T17:02:06;27.55;;;25.17;;
62102;SDS011;48077;48.104;11.702;2023-04-03T17:04:30;25.77;;;23.83;;
62102;SDS011;48077;48.104;11.702;2023-04-03T17:06:53;27.75;;;25.25;;
62102;SDS011;48077;48.104;11.702;2023-04-03T17:09:17;25.67;;;23.88;;
62102;SDS011;48077;48.104;11.702;2023-04-03T17:11:41;28.60;;;26.35;;
62102;SDS011;48077;48.104;11.702;2023-04-03T17:14:04;29.05;;;26.70;;
62102;SDS011;48077;48.104;11.702;2023-04-03T17:16:28;31.48;;;29.15;;
62102;SDS011;48077;48.104;11.702;2023-04-03T17:18:52;33.17;;;30.70;;
62102;SDS011;48077;48.104;11.702;2023-04-03T17:21:17;36.53;;;33.72;;
62102;SDS011;48077;48.104;11.702;2023-04-03T17:23:41;34.45;;;31.90;;
62102;SDS011;48077;48.104;11.702;2023-04-03T17:26:07;36.15;;;33.60;;
62102;SDS011;48077;48.104;11.702;2023-04-03T17:28:30;38.55;;;35.45;;
62102;SDS011;48077;48.104;11.702;2023-04-03T17:30:54;40.92;;;37.75;;
62102;SDS011;48077;48.104;11.702;2023-04-03T17:33:18;38.35;;;35.40;;
62102;SDS011;48077;48.104;11.702;2023-04-03T17:35:42;38.78;;;35.80;;
62102;SDS011;48077;48.104;11.702;2023-04-03T17:38:05;42.90;;;39.67;;
62102;SDS011;48077;48.104;11.702;2023-04-03T17:40:29;38.35;;;35.47;;
62102;SDS011;48077;48.104;11.702;2023-04-03T17:42:52;40.90;;;37.70;;
62102;SDS011;48077;48.104;11.702;2023-04-03T17:45:15;44.50;;;41.05;;
62102;SDS011;48077;48.104;11.702;2023-04-03T17:47:39;42.05;;;38.72;;
62102;SDS011;48077;48.104;11.702;2023-04-03T17:50:02;42.25;;;38.95;;
62102;SDS011;48077;48.104;11.702;2023-04-03T17:52:26;39.95;;;36.97;;
62102;SDS011;48077;48.104;11.702;2023-04-03T17:54:50;41.83;;;38.70;;
62102;SDS011;48077;48.104;11.702;2023-04-03T17:57:13;42.03;;;38.78;;
62102;SDS011;48077;48.104;11.702;2023-04-03T17:59:37;41.10;;;38.05;;
62102;SDS011;48077;48.104;11.702;2023-04-03T18:02:00;41.00;;;38.08;;
62102;SDS011;48077;48.104;11.702;2023-04-03T18:04:23;40.30;;;37.22;;
62102;SDS011;48077;48.104;11.702;2023-04-03T18:06:47;41.85;;;38.45;;
62102;SDS011;48077;48.104;11.702;2023-04-03T18:09:46;43.78;;;40.05;;
62102;SDS011;48077;48.104;11.702;2023-04-03T18:12:04;45.70;;;42.22;;
62102;SDS011;48077;48.104;11.702;2023-04-03T18:14:29;43.92;;;40.60;;
62102;SDS011;48077;48.104;11.702;2023-04-03T18:16:58;44.15;;;40.88;;
62102;SDS011;48077;48.104;11.702;2023-04-03T18:19:22;45.90;;;42.20;;
62102;SDS011;48077;48.104;11.702;2023-04-03T18:21:47;43.05;;;39.50;;
62102;SDS011;48077;48.104;11.702;2023-04-03T18:24:11;44.10;;;40.60;;
62102;SDS011;48077;48.104;11.702;2023-04-03T18:26:40;46.83;;;43.25;;
62102;SDS011;48077;48.104;11.702;2023-04-03T18:29:05;42.50;;;39.28;;
62102;SDS011;48077;48.104;11.702;2023-04-03T18:31:31;45.03;;;41.45;;
62102;SDS011;48077;48.104;11.702;2023-04-03T18:33:55;42.80;;;39.60;;
62102;SDS011;48077;48.104;11.702;2023-04-03T18:36:20;45.28;;;41.53;;
62102;SDS011;48077;48.104;11.702;2023-04-03T18:38:44;44.22;;;40.92;;
62102;SDS011;48077;48.104;11.702;2023-04-03T18:41:07;45.13;;;41.58;;
62102;SDS011;48077;48.104;11.702;2023-04-03T18:43:31;43.13;;;39.53;;
62102;SDS011;48077;48.104;11.702;2023-04-03T18:45:58;46.97;;;43.05;;
62102;SDS011;48077;48.104;11.702;2023-04-03T18:48:21;45.22;;;41.65;;
62102;SDS011;48077;48.104;11.702;2023-04-03T18:50:44;48.60;;;44.83;;
62102;SDS011;48077;48.104;11.702;2023-04-03T18:53:08;44.92;;;41.65;;
62102;SDS011;48077;48.104;11.702;2023-04-03T18:55:31;43.97;;;40.65;;
62102;SDS011;48077;48.104;11.702;2023-04-03T18:57:57;43.83;;;40.35;;
62102;SDS011;48077;48.104;11.702;2023-04-03T19:00:21;48.67;;;44.83;;
62102;SDS011;48077;48.104;11.702;2023-04-03T19:02:44;45.50;;;41.90;;
62102;SDS011;48077;48.104;11.702;2023-04-03T19:05:09;43.90;;;40.58;;
62102;SDS011;48077;48.104;11.702;2023-04-03T19:07:34;45.25;;;41.90;;
62102;SDS011;48077;48.104;11.702;2023-04-03T19:09:58;46.40;;;43.15;;
62102;SDS011;48077;48.104;11.702;2023-04-03T19:12:22;47.17;;;43.65;;
62102;SDS011;48077;48.104;11.702;2023-04-03T19:14:49;44.58;;;41.42;;
62102;SDS011;48077;48.104;11.702;2023-04-03T19:17:12;47.88;;;44.03;;
62102;SDS011;48077;48.104;11.702;2023-04-03T19:19:38;47.35;;;43.80;;
62102;SDS011;48077;48.104;11.702;2023-04-03T19:22:02;47.70;;;44.17;;
62102;SDS011;48077;48.104;11.702;2023-04-03T19:24:25;49.13;;;45.22;;
62102;SDS011;48077;48.104;11.702;2023-04-03T19:26:48;48.25;;;44.53;;
62102;SDS011;48077;48.104;11.702;2023-04-03T19:29:12;53.47;;;49.15;;
62102;SDS011;48077;48.104;11.702;2023-04-03T19:31:36;48.60;;;45.13;;
62102;SDS011;48077;48.104;11.702;2023-04-03T19:34:00;51.05;;;47.30;;
62102;SDS011;48077;48.104;11.702;2023-04-03T19:36:25;48.10;;;44.50;;
62102;SDS011;48077;48.104;11.702;2023-04-03T19:38:49;49.67;;;45.78;;
62102;SDS011;48077;48.104;11.702;2023-04-03T19:41:20;53.58;;;48.92;;
62102;SDS011;48077;48.104;11.702;2023-04-03T19:43:45;52.53;;;48.53;;
62102;SDS011;48077;48.104;11.702;2023-04-03T19:46:08;52.22;;;47.97;;
62102;SDS011;48077;48.104;11.702;2023-04-03T19:48:34;49.35;;;45.80;;
62102;SDS011;48077;48.104;11.702;2023-04-03T19:50:58;52.92;;;48.88;;
62102;SDS011;48077;48.104;11.702;2023-04-03T19:53:21;50.30;;;46.30;;
62102;SDS011;48077;48.104;11.702;2023-04-03T19:58:14;70.60;;;64.45;;
62102;SDS011;48077;48.104;11.702;2023-04-03T20:00:37;58.88;;;54.40;;
62102;SDS011;48077;48.104;11.702;2023-04-03T20:03:00;54.13;;;50.28;;
62102;SDS011;48077;48.104;11.702;2023-04-03T20:05:24;55.60;;;51.30;;
62102;SDS011;48077;48.104;11.702;2023-04-03T20:07:47;52.78;;;48.53;;
62102;SDS011;48077;48.104;11.702;2023-04-03T20:10:11;53.50;;;49.33;;
62102;SDS011;48077;48.104;11.702;2023-04-03T20:12:34;50.88;;;46.85;;
62102;SDS011;48077;48.104;11.702;2023-04-03T20:14:59;54.72;;;50.70;;
62102;SDS011;48077;48.104;11.702;2023-04-03T20:17:23;54.40;;;50.33;;
62102;SDS011;48077;48.104;11.702;2023-04-03T20:19:46;54.45;;;50.28;;
62102;SDS011;48077;48.104;11.702;2023-04-03T20:22:10;56.20;;;51.63;;
62102;SDS011;48077;48.104;11.702;2023-04-03T20:24:33;52.80;;;48.80;;
62102;SDS011;48077;48.104;11.702;2023-04-03T20:26:57;53.65;;;49.50;;
62102;SDS011;48077;48.104;11.702;2023-04-03T20:29:20;53.58;;;49.38;;
62102;SDS011;48077;48.104;11.702;2023-04-03T20:31:43;55.17;;;50.95;;
62102;SDS011;48077;48.104;11.702;2023-04-03T20:34:08;55.95;;;51.45;;
62102;SDS011;48077;48.104;11.702;2023-04-03T20:36:32;55.40;;;51.10;;
62102;SDS011;48077;48.104;11.702;2023-04-03T20:38:55;55.45;;;51.13;;
62102;SDS011;48077;48.104;11.702;2023-04-03T20:41:19;58.67;;;53.92;;
62102;SDS011;48077;48.104;11.702;2023-04-03T20:43:43;57.15;;;52.83;;
62102;SDS011;48077;48.104;11.702;2023-04-03T20:46:09;59.42;;;54.53;;
62102;SDS011;48077;48.104;11.702;2023-04-03T20:48:36;57.72;;;53.20;;
62102;SDS011;48077;48.104;11.702;2023-04-03T20:51:21;56.28;;;51.85;;
62102;SDS011;48077;48.104;11.702;2023-04-03T20:53:44;62.15;;;57.28;;
62102;SDS011;48077;48.104;11.702;2023-04-03T20:56:08;62.97;;;57.90;;
62102;SDS011;48077;48.104;11.702;2023-04-03T20:58:31;59.90;;;54.83;;
62102;SDS011;48077;48.104;11.702;2023-04-03T21:00:58;61.40;;;56.53;;
62102;SDS011;48077;48.104;11.702;2023-04-03T21:03:22;60.03;;;55.38;;
62102;SDS011;48077;48.104;11.702;2023-04-03T21:05:47;60.25;;;55.50;;
62102;SDS011;48077;48.104;11.702;2023-04-03T21:19:37;65.15;;;60.10;;
62102;SDS011;48077;48.104;11.702;2023-04-03T21:22:08;65.40;;;60.35;;
62102;SDS011;48077;48.104;11.702;2023-04-03T21:24:31;63.10;;;58.10;;
62102;SDS011;48077;48.104;11.702;2023-04-03T21:26:55;61.38;;;56.63;;
62102;SDS011;48077;48.104;11.702;2023-04-03T21:29:19;66.45;;;61.05;;
62102;SDS011;48077;48.104;11.702;2023-04-03T21:31:50;61.13;;;56.22;;
62102;SDS011;48077;48.104;11.702;2023-04-03T21:34:20;64.07;;;58.97;;
62102;SDS011;48077;48.104;11.702;2023-04-03T21:36:44;63.08;;;58.33;;
62102;SDS011;48077;48.104;11.702;2023-04-03T21:39:07;63.40;;;58.63;;
62102;SDS011;48077;48.104;11.702;2023-04-03T21:41:31;63.60;;;58.75;;
62102;SDS011;48077;48.104;11.702;2023-04-03T21:43:54;63.17;;;58.33;;
62102;SDS011;48077;48.104;11.702;2023-04-03T21:46:18;64.88;;;59.58;;
62102;SDS011;48077;48.104;11.702;2023-04-03T21:48:42;65.78;;;60.63;;
62102;SDS011;48077;48.104;11.702;2023-04-03T21:51:08;66.00;;;60.80;;
62102;SDS011;48077;48.104;11.702;2023-04-03T21:53:32;64.93;;;60.00;;
62102;SDS011;48077;48.104;11.702;2023-04-03T21:55:56;65.30;;;60.08;;
62102;SDS011;48077;48.104;11.702;2023-04-03T21:58:20;69.15;;;63.38;;
62102;SDS011;48077;48.104;11.702;2023-04-03T22:00:43;63.80;;;58.95;;
62102;SDS011;48077;48.104;11.702;2023-04-03T22:03:06;64.60;;;59.65;;
62102;SDS011;48077;48.104;11.702;2023-04-03T22:05:30;66.70;;;61.45;;
62102;SDS011;48077;48.104;11.702;2023-04-03T22:07:54;64.82;;;59.70;;
62102;SDS011;48077;48.104;11.702;2023-04-03T22:10:17;66.57;;;61.10;;
62102;SDS011;48077;48.104;11.702;2023-04-03T22:12:40;65.15;;;60.25;;
62102;SDS011;48077;48.104;11.702;2023-04-03T22:15:04;64.47;;;59.58;;
62102;SDS011;48077;48.104;11.702;2023-04-03T22:17:29;65.38;;;60.20;;
62102;SDS011;48077;48.104;11.702;2023-04-03T22:19:53;67.00;;;61.63;;
62102;SDS011;48077;48.104;11.702;2023-04-03T22:22:16;69.20;;;63.47;;
62102;SDS011;48077;48.104;11.702;2023-04-03T22:24:40;64.60;;;59.55;;
62102;SDS011;48077;48.104;11.702;2023-04-03T22:27:03;63.17;;;58.33;;
62102;SDS011;48077;48.104;11.702;2023-04-03T22:29:27;62.67;;;57.88;;
62102;SDS011;48077;48.104;11.702;2023-04-03T22:31:50;62.90;;;58.15;;
62102;SDS011;48077;48.104;11.702;2023-04-03T22:34:14;62.85;;;57.60;;
62102;SDS011;48077;48.104;11.702;2023-04-03T22:36:38;64.15;;;58.67;;
62102;SDS011;48077;48.104;11.702;2023-04-03T22:39:05;64.07;;;59.00;;
62102;SDS011;48077;48.104;11.702;2023-04-03T22:41:28;64.35;;;59.40;;
62102;SDS011;48077;48.104;11.702;2023-04-03T22:43:52;66.10;;;60.90;;
62102;SDS011;48077;48.104;11.702;2023-04-03T22:46:19;76.38;;;69.55;;
62102;SDS011;48077;48.104;11.702;2023-04-03T22:48:42;73.20;;;66.72;;
62102;SDS011;48077;48.104;11.702;2023-04-03T22:51:07;68.47;;;62.65;;
62102;SDS011;48077;48.104;11.702;2023-04-03T22:53:30;62.63;;;57.97;;
62102;SDS011;48077;48.104;11.702;2023-04-03T22:55:55;65.03;;;60.17;;
62102;SDS011;48077;48.104;11.702;2023-04-03T22:58:19;66.28;;;60.88;;
62102;SDS011;48077;48.104;11.702;2023-04-03T23:00:48;67.20;;;62.00;;
62102;SDS011;48077;48.104;11.702;2023-04-03T23:03:12;68.15;;;62.25;;
62102;SDS011;48077;48.104;11.702;2023-04-03T23:05:37;67.63;;;62.10;;
62102;SDS011;48077;48.104;11.702;2023-04-03T23:08:01;67.13;;;61.85;;
62102;SDS011;48077;48.104;11.702;2023-04-03T23:10:25;66.75;;;61.63;;
62102;SDS011;48077;48.104;11.702;2023-04-03T23:12:48;68.32;;;62.92;;
62102;SDS011;48077;48.104;11.702;2023-04-03T23:15:12;68.93;;;63.15;;
62102;SDS011;48077;48.104;11.702;2023-04-03T23:17:36;65.32;;;60.30;;
62102;SDS011;48077;48.104;11.702;2023-04-03T23:20:00;67.82;;;62.58;;
62102;SDS011;48077;48.104;11.702;2023-04-03T23:22:23;64.15;;;59.17;;
62102;SDS011;48077;48.104;11.702;2023-04-03T23:24:47;67.50;;;62.25;;
62102;SDS011;48077;48.104;11.702;2023-04-03T23:27:10;70.03;;;64.28;;
62102;SDS011;48077;48.104;11.702;2023-04-03T23:29:34;67.45;;;62.15;;
62102;SDS011;48077;48.104;11.702;2023-04-03T23:31:58;69.57;;;64.05;;
62102;SDS011;48077;48.104;11.702;2023-04-03T23:34:21;69.63;;;63.97;;
62102;SDS011;48077;48.104;11.702;2023-04-03T23:36:44;68.82;;;63.42;;
62102;SDS011;48077;48.104;11.702;2023-04-03T23:39:09;71.95;;;65.82;;
62102;SDS011;48077;48.104;11.702;2023-04-03T23:41:32;70.95;;;65.30;;
62102;SDS011;48077;48.104;11.702;2023-04-03T23:43:55;68.05;;;62.70;;
62102;SDS011;48077;48.104;11.702;2023-04-03T23:46:19;74.13;;;67.18;;
62102;SDS011;48077;48.104;11.702;2023-04-03T23:48:42;69.60;;;64.07;;
62102;SDS011;48077;48.104;11.702;2023-04-03T23:51:05;68.53;;;62.90;;
62102;SDS011;48077;48.104;11.702;2023-04-03T23:53:30;68.40;;;63.15;;
62102;SDS011;48077;48.104;11.702;2023-04-03T23:55:53;67.75;;;62.33;;
62102;SDS011;48077;48.104;11.702;2023-04-03T23:58:16;70.13;;;64.15;;
